sensor_id;sensor_type;location;lat;lon;timestamp;temperature;humidity
30889;DHT22;51092;50.874;7.024;2023-03-04T00:00:07;3.20;98.80
30889;DHT22;51092;50.874;7.024;2023-03-04T00:01:10;3.30;98.80
30889;DHT22;51092;50.874;7.024;2023-03-04T00:02:11;3.20;98.90
30889;DHT22;51092;50.874;7.024;2023-03-04T00:03:14;3.20;98.90
30889;DHT22;51092;50.874;7.024;2023-03-04T00:04:15;3.30;98.90
30889;DHT22;51092;50.874;7.024;2023-03-04T00:05:18;3.40;98.70
30889;DHT22;51092;50.874;7.024;2023-03-04T00:06:20;3.40;98.70
30889;DHT22;51092;50.874;7.024;2023-03-04T00:07:22;3.40;98.70
30889;DHT22;51092;50.874;7.024;2023-03-04T00:08:24;3.40;98.50
30889;DHT22;51092;50.874;7.024;2023-03-04T00:09:26;3.40;98.50
30889;DHT22;51092;50.874;7.024;2023-03-04T00:10:28;3.40;98.50
30889;DHT22;51092;50.874;7.024;2023-03-04T00:11:31;3.30;98.50
30889;DHT22;51092;50.874;7.024;2023-03-04T00:12:33;3.30;98.50
30889;DHT22;51092;50.874;7.024;2023-03-04T00:13:35;3.20;98.70
30889;DHT22;51092;50.874;7.024;2023-03-04T00:14:37;3.20;98.80
30889;DHT22;51092;50.874;7.024;2023-03-04T00:15:42;3.30;98.80
30889;DHT22;51092;50.874;7.024;2023-03-04T00:16:43;3.40;98.70
30889;DHT22;51092;50.874;7.024;2023-03-04T00:17:46;3.40;98.70
30889;DHT22;51092;50.874;7.024;2023-03-04T00:18:48;3.30;98.70
30889;DHT22;51092;50.874;7.024;2023-03-04T00:19:50;3.40;98.70
30889;DHT22;51092;50.874;7.024;2023-03-04T00:20:52;3.50;98.40
30889;DHT22;51092;50.874;7.024;2023-03-04T00:21:54;3.50;98.10
30889;DHT22;51092;50.874;7.024;2023-03-04T00:22:56;3.50;98.30
30889;DHT22;51092;50.874;7.024;2023-03-04T00:23:58;3.40;98.40
30889;DHT22;51092;50.874;7.024;2023-03-04T00:24:59;3.40;98.30
30889;DHT22;51092;50.874;7.024;2023-03-04T00:26:02;3.40;98.30
30889;DHT22;51092;50.874;7.024;2023-03-04T00:27:04;3.50;98.30
30889;DHT22;51092;50.874;7.024;2023-03-04T00:28:08;3.50;98.20
30889;DHT22;51092;50.874;7.024;2023-03-04T00:29:10;3.60;98.10
30889;DHT22;51092;50.874;7.024;2023-03-04T00:30:12;3.60;98.10
30889;DHT22;51092;50.874;7.024;2023-03-04T00:31:15;3.50;98.00
30889;DHT22;51092;50.874;7.024;2023-03-04T00:32:18;3.50;98.00
30889;DHT22;51092;50.874;7.024;2023-03-04T00:33:19;3.60;98.00
30889;DHT22;51092;50.874;7.024;2023-03-04T00:34:22;3.60;98.00
30889;DHT22;51092;50.874;7.024;2023-03-04T00:35:26;3.60;97.90
30889;DHT22;51092;50.874;7.024;2023-03-04T00:36:27;3.60;97.80
30889;DHT22;51092;50.874;7.024;2023-03-04T00:37:28;3.60;97.80
30889;DHT22;51092;50.874;7.024;2023-03-04T00:38:30;3.50;97.90
30889;DHT22;51092;50.874;7.024;2023-03-04T00:39:32;3.60;97.80
30889;DHT22;51092;50.874;7.024;2023-03-04T00:40:34;3.60;97.90
30889;DHT22;51092;50.874;7.024;2023-03-04T00:41:36;3.60;97.80
30889;DHT22;51092;50.874;7.024;2023-03-04T00:42:38;3.60;97.70
30889;DHT22;51092;50.874;7.024;2023-03-04T00:43:40;3.70;97.60
30889;DHT22;51092;50.874;7.024;2023-03-04T00:44:42;3.70;97.70
30889;DHT22;51092;50.874;7.024;2023-03-04T00:45:44;3.70;97.60
30889;DHT22;51092;50.874;7.024;2023-03-04T00:46:48;3.70;97.50
30889;DHT22;51092;50.874;7.024;2023-03-04T00:47:49;3.70;97.60
30889;DHT22;51092;50.874;7.024;2023-03-04T00:48:52;3.70;97.70
30889;DHT22;51092;50.874;7.024;2023-03-04T00:49:53;3.70;97.90
30889;DHT22;51092;50.874;7.024;2023-03-04T00:50:56;3.70;97.90
30889;DHT22;51092;50.874;7.024;2023-03-04T00:51:57;3.70;97.80
30889;DHT22;51092;50.874;7.024;2023-03-04T00:53:00;3.70;97.70
30889;DHT22;51092;50.874;7.024;2023-03-04T00:54:02;3.70;97.60
30889;DHT22;51092;50.874;7.024;2023-03-04T00:55:06;3.70;97.60
30889;DHT22;51092;50.874;7.024;2023-03-04T00:56:08;3.70;97.40
30889;DHT22;51092;50.874;7.024;2023-03-04T00:57:11;3.60;97.50
30889;DHT22;51092;50.874;7.024;2023-03-04T00:58:12;3.70;97.60
30889;DHT22;51092;50.874;7.024;2023-03-04T00:59:17;3.60;97.70
30889;DHT22;51092;50.874;7.024;2023-03-04T01:00:19;3.70;97.50
30889;DHT22;51092;50.874;7.024;2023-03-04T01:01:21;3.60;97.60
30889;DHT22;51092;50.874;7.024;2023-03-04T01:02:25;3.60;97.60
30889;DHT22;51092;50.874;7.024;2023-03-04T01:03:26;3.60;97.70
30889;DHT22;51092;50.874;7.024;2023-03-04T01:04:34;3.60;97.70
30889;DHT22;51092;50.874;7.024;2023-03-04T01:05:38;3.60;97.80
30889;DHT22;51092;50.874;7.024;2023-03-04T01:06:41;3.60;97.90
30889;DHT22;51092;50.874;7.024;2023-03-04T01:07:43;3.60;97.90
30889;DHT22;51092;50.874;7.024;2023-03-04T01:08:45;3.60;97.90
30889;DHT22;51092;50.874;7.024;2023-03-04T01:09:47;3.70;97.70
30889;DHT22;51092;50.874;7.024;2023-03-04T01:10:49;3.80;97.50
30889;DHT22;51092;50.874;7.024;2023-03-04T01:11:51;3.80;97.40
30889;DHT22;51092;50.874;7.024;2023-03-04T01:12:53;3.70;97.50
30889;DHT22;51092;50.874;7.024;2023-03-04T01:13:55;3.70;97.50
30889;DHT22;51092;50.874;7.024;2023-03-04T01:14:57;3.80;97.40
30889;DHT22;51092;50.874;7.024;2023-03-04T01:15:59;3.70;97.30
30889;DHT22;51092;50.874;7.024;2023-03-04T01:17:01;3.70;97.30
30889;DHT22;51092;50.874;7.024;2023-03-04T01:18:05;3.80;97.20
30889;DHT22;51092;50.874;7.024;2023-03-04T01:19:06;3.80;97.30
30889;DHT22;51092;50.874;7.024;2023-03-04T01:20:10;3.80;97.10
30889;DHT22;51092;50.874;7.024;2023-03-04T01:21:12;3.80;97.10
30889;DHT22;51092;50.874;7.024;2023-03-04T01:22:14;3.70;97.30
30889;DHT22;51092;50.874;7.024;2023-03-04T01:23:16;3.80;97.20
30889;DHT22;51092;50.874;7.024;2023-03-04T01:24:19;3.70;97.30
30889;DHT22;51092;50.874;7.024;2023-03-04T01:25:21;3.70;97.40
30889;DHT22;51092;50.874;7.024;2023-03-04T01:26:23;3.70;97.50
30889;DHT22;51092;50.874;7.024;2023-03-04T01:27:25;3.70;97.70
30889;DHT22;51092;50.874;7.024;2023-03-04T01:28:27;3.70;97.70
30889;DHT22;51092;50.874;7.024;2023-03-04T01:29:29;3.70;97.70
30889;DHT22;51092;50.874;7.024;2023-03-04T01:30:31;3.80;97.50
30889;DHT22;51092;50.874;7.024;2023-03-04T01:31:33;3.80;97.60
30889;DHT22;51092;50.874;7.024;2023-03-04T01:32:35;3.80;97.40
30889;DHT22;51092;50.874;7.024;2023-03-04T01:33:38;3.70;97.50
30889;DHT22;51092;50.874;7.024;2023-03-04T01:34:40;3.70;97.50
30889;DHT22;51092;50.874;7.024;2023-03-04T01:35:42;3.80;97.50
30889;DHT22;51092;50.874;7.024;2023-03-04T01:36:44;3.80;97.50
30889;DHT22;51092;50.874;7.024;2023-03-04T01:37:46;3.80;97.50
30889;DHT22;51092;50.874;7.024;2023-03-04T01:38:48;3.80;97.50
30889;DHT22;51092;50.874;7.024;2023-03-04T01:39:50;3.80;97.50
30889;DHT22;51092;50.874;7.024;2023-03-04T01:40:52;3.90;97.50
30889;DHT22;51092;50.874;7.024;2023-03-04T01:41:54;3.80;97.50
30889;DHT22;51092;50.874;7.024;2023-03-04T01:42:57;3.80;97.60
30889;DHT22;51092;50.874;7.024;2023-03-04T01:43:59;3.80;97.50
30889;DHT22;51092;50.874;7.024;2023-03-04T01:45:03;3.80;97.60
30889;DHT22;51092;50.874;7.024;2023-03-04T01:46:05;3.80;97.70
30889;DHT22;51092;50.874;7.024;2023-03-04T01:47:09;3.70;97.90
30889;DHT22;51092;50.874;7.024;2023-03-04T01:48:13;3.70;98.10
30889;DHT22;51092;50.874;7.024;2023-03-04T01:49:17;3.70;98.20
30889;DHT22;51092;50.874;7.024;2023-03-04T01:50:22;3.70;98.20
30889;DHT22;51092;50.874;7.024;2023-03-04T01:51:25;3.80;97.80
30889;DHT22;51092;50.874;7.024;2023-03-04T01:52:27;3.80;98.00
30889;DHT22;51092;50.874;7.024;2023-03-04T01:53:31;3.90;97.90
30889;DHT22;51092;50.874;7.024;2023-03-04T01:54:33;3.90;97.80
30889;DHT22;51092;50.874;7.024;2023-03-04T01:55:35;4.00;97.70
30889;DHT22;51092;50.874;7.024;2023-03-04T01:56:38;4.00;97.80
30889;DHT22;51092;50.874;7.024;2023-03-04T01:57:41;4.00;97.60
30889;DHT22;51092;50.874;7.024;2023-03-04T01:58:42;4.00;97.30
30889;DHT22;51092;50.874;7.024;2023-03-04T01:59:45;4.00;97.50
30889;DHT22;51092;50.874;7.024;2023-03-04T02:00:47;3.90;97.90
30889;DHT22;51092;50.874;7.024;2023-03-04T02:01:55;3.70;98.80
30889;DHT22;51092;50.874;7.024;2023-03-04T02:02:59;3.60;99.50
30889;DHT22;51092;50.874;7.024;2023-03-04T02:04:02;3.50;99.90
30889;DHT22;51092;50.874;7.024;2023-03-04T02:05:08;3.60;99.90
30889;DHT22;51092;50.874;7.024;2023-03-04T02:06:11;3.70;99.50
30889;DHT22;51092;50.874;7.024;2023-03-04T02:07:12;3.80;99.00
30889;DHT22;51092;50.874;7.024;2023-03-04T02:08:17;3.70;99.00
30889;DHT22;51092;50.874;7.024;2023-03-04T02:09:20;3.80;98.80
30889;DHT22;51092;50.874;7.024;2023-03-04T02:10:23;3.90;98.60
30889;DHT22;51092;50.874;7.024;2023-03-04T02:11:24;3.90;98.40
30889;DHT22;51092;50.874;7.024;2023-03-04T02:12:27;4.00;98.00
30889;DHT22;51092;50.874;7.024;2023-03-04T02:13:29;4.00;97.90
30889;DHT22;51092;50.874;7.024;2023-03-04T02:14:31;4.10;97.70
30889;DHT22;51092;50.874;7.024;2023-03-04T02:15:33;4.10;97.60
30889;DHT22;51092;50.874;7.024;2023-03-04T02:16:36;4.10;97.50
30889;DHT22;51092;50.874;7.024;2023-03-04T02:17:38;4.10;97.20
30889;DHT22;51092;50.874;7.024;2023-03-04T02:18:40;4.10;97.10
30889;DHT22;51092;50.874;7.024;2023-03-04T02:19:47;4.00;97.50
30889;DHT22;51092;50.874;7.024;2023-03-04T02:20:59;3.90;97.80
30889;DHT22;51092;50.874;7.024;2023-03-04T02:22:05;3.90;98.10
30889;DHT22;51092;50.874;7.024;2023-03-04T02:23:12;3.90;98.00
30889;DHT22;51092;50.874;7.024;2023-03-04T02:24:18;3.80;98.20
30889;DHT22;51092;50.874;7.024;2023-03-04T02:25:27;3.80;98.50
30889;DHT22;51092;50.874;7.024;2023-03-04T02:26:35;3.90;98.50
30889;DHT22;51092;50.874;7.024;2023-03-04T02:27:39;3.90;98.30
30889;DHT22;51092;50.874;7.024;2023-03-04T02:28:41;4.00;98.10
30889;DHT22;51092;50.874;7.024;2023-03-04T02:29:44;4.10;97.70
30889;DHT22;51092;50.874;7.024;2023-03-04T02:30:46;4.10;97.50
30889;DHT22;51092;50.874;7.024;2023-03-04T02:31:50;4.20;97.40
30889;DHT22;51092;50.874;7.024;2023-03-04T02:32:53;4.10;97.40
30889;DHT22;51092;50.874;7.024;2023-03-04T02:33:56;4.20;97.30
30889;DHT22;51092;50.874;7.024;2023-03-04T02:34:58;4.20;97.20
30889;DHT22;51092;50.874;7.024;2023-03-04T02:35:59;4.20;96.70
30889;DHT22;51092;50.874;7.024;2023-03-04T02:37:01;4.20;96.80
30889;DHT22;51092;50.874;7.024;2023-03-04T02:38:04;4.10;97.00
30889;DHT22;51092;50.874;7.024;2023-03-04T02:39:09;4.10;97.00
30889;DHT22;51092;50.874;7.024;2023-03-04T02:40:15;4.00;97.30
30889;DHT22;51092;50.874;7.024;2023-03-04T02:41:21;4.00;97.50
30889;DHT22;51092;50.874;7.024;2023-03-04T02:42:26;3.90;97.70
30889;DHT22;51092;50.874;7.024;2023-03-04T02:43:27;3.90;97.70
30889;DHT22;51092;50.874;7.024;2023-03-04T02:44:32;3.90;97.80
30889;DHT22;51092;50.874;7.024;2023-03-04T02:45:37;3.80;98.00
30889;DHT22;51092;50.874;7.024;2023-03-04T02:46:40;3.90;98.10
30889;DHT22;51092;50.874;7.024;2023-03-04T02:47:41;3.90;98.20
30889;DHT22;51092;50.874;7.024;2023-03-04T02:48:45;3.90;97.60
30889;DHT22;51092;50.874;7.024;2023-03-04T02:49:47;3.80;97.90
30889;DHT22;51092;50.874;7.024;2023-03-04T02:50:51;3.80;98.10
30889;DHT22;51092;50.874;7.024;2023-03-04T02:51:58;3.80;98.10
30889;DHT22;51092;50.874;7.024;2023-03-04T02:53:02;3.70;98.50
30889;DHT22;51092;50.874;7.024;2023-03-04T02:54:04;3.70;98.70
30889;DHT22;51092;50.874;7.024;2023-03-04T02:55:15;3.80;98.60
30889;DHT22;51092;50.874;7.024;2023-03-04T02:56:16;3.90;98.20
30889;DHT22;51092;50.874;7.024;2023-03-04T02:57:19;4.00;97.80
30889;DHT22;51092;50.874;7.024;2023-03-04T02:58:21;4.10;97.60
30889;DHT22;51092;50.874;7.024;2023-03-04T02:59:24;4.10;97.40
30889;DHT22;51092;50.874;7.024;2023-03-04T03:00:26;4.20;97.20
30889;DHT22;51092;50.874;7.024;2023-03-04T03:01:28;4.30;96.90
30889;DHT22;51092;50.874;7.024;2023-03-04T03:02:30;4.40;96.50
30889;DHT22;51092;50.874;7.024;2023-03-04T03:03:32;4.40;96.40
30889;DHT22;51092;50.874;7.024;2023-03-04T03:04:36;4.40;96.40
30889;DHT22;51092;50.874;7.024;2023-03-04T03:05:39;4.40;96.50
30889;DHT22;51092;50.874;7.024;2023-03-04T03:06:41;4.40;96.40
30889;DHT22;51092;50.874;7.024;2023-03-04T03:07:43;4.40;96.20
30889;DHT22;51092;50.874;7.024;2023-03-04T03:08:45;4.50;96.10
30889;DHT22;51092;50.874;7.024;2023-03-04T03:09:47;4.60;95.90
30889;DHT22;51092;50.874;7.024;2023-03-04T03:10:49;4.50;95.70
30889;DHT22;51092;50.874;7.024;2023-03-04T03:11:52;4.50;96.00
30889;DHT22;51092;50.874;7.024;2023-03-04T03:12:53;4.40;96.10
30889;DHT22;51092;50.874;7.024;2023-03-04T03:13:57;4.40;96.20
30889;DHT22;51092;50.874;7.024;2023-03-04T03:14:58;4.40;96.20
30889;DHT22;51092;50.874;7.024;2023-03-04T03:16:02;4.40;96.10
30889;DHT22;51092;50.874;7.024;2023-03-04T03:17:04;4.20;96.60
30889;DHT22;51092;50.874;7.024;2023-03-04T03:18:06;4.20;96.80
30889;DHT22;51092;50.874;7.024;2023-03-04T03:19:08;4.30;96.70
30889;DHT22;51092;50.874;7.024;2023-03-04T03:20:11;4.30;96.40
30889;DHT22;51092;50.874;7.024;2023-03-04T03:21:14;4.30;96.40
30889;DHT22;51092;50.874;7.024;2023-03-04T03:22:16;4.30;96.40
30889;DHT22;51092;50.874;7.024;2023-03-04T03:23:18;4.30;96.60
30889;DHT22;51092;50.874;7.024;2023-03-04T03:24:21;4.30;96.70
30889;DHT22;51092;50.874;7.024;2023-03-04T03:25:23;4.30;96.60
30889;DHT22;51092;50.874;7.024;2023-03-04T03:26:25;4.40;96.50
30889;DHT22;51092;50.874;7.024;2023-03-04T03:27:27;4.50;96.20
30889;DHT22;51092;50.874;7.024;2023-03-04T03:28:29;4.50;96.00
30889;DHT22;51092;50.874;7.024;2023-03-04T03:29:32;4.40;96.10
30889;DHT22;51092;50.874;7.024;2023-03-04T03:30:34;4.40;96.30
30889;DHT22;51092;50.874;7.024;2023-03-04T03:31:37;4.40;96.20
30889;DHT22;51092;50.874;7.024;2023-03-04T03:32:38;4.40;96.20
30889;DHT22;51092;50.874;7.024;2023-03-04T03:33:40;4.40;96.20
30889;DHT22;51092;50.874;7.024;2023-03-04T03:34:42;4.40;96.30
30889;DHT22;51092;50.874;7.024;2023-03-04T03:35:44;4.50;96.20
30889;DHT22;51092;50.874;7.024;2023-03-04T03:36:46;4.60;95.90
30889;DHT22;51092;50.874;7.024;2023-03-04T03:37:48;4.60;95.70
30889;DHT22;51092;50.874;7.024;2023-03-04T03:38:50;4.60;95.60
30889;DHT22;51092;50.874;7.024;2023-03-04T03:39:52;4.50;95.80
30889;DHT22;51092;50.874;7.024;2023-03-04T03:40:54;4.50;95.90
30889;DHT22;51092;50.874;7.024;2023-03-04T03:41:56;4.40;96.00
30889;DHT22;51092;50.874;7.024;2023-03-04T03:42:58;4.50;96.10
30889;DHT22;51092;50.874;7.024;2023-03-04T03:44:00;4.40;96.10
30889;DHT22;51092;50.874;7.024;2023-03-04T03:45:04;4.30;96.30
30889;DHT22;51092;50.874;7.024;2023-03-04T03:46:06;4.30;96.50
30889;DHT22;51092;50.874;7.024;2023-03-04T03:47:08;4.30;96.50
30889;DHT22;51092;50.874;7.024;2023-03-04T03:48:10;4.30;96.40
30889;DHT22;51092;50.874;7.024;2023-03-04T03:49:12;4.40;96.30
30889;DHT22;51092;50.874;7.024;2023-03-04T03:50:15;4.40;96.20
30889;DHT22;51092;50.874;7.024;2023-03-04T03:51:16;4.40;96.30
30889;DHT22;51092;50.874;7.024;2023-03-04T03:52:19;4.40;96.20
30889;DHT22;51092;50.874;7.024;2023-03-04T03:53:21;4.50;96.10
30889;DHT22;51092;50.874;7.024;2023-03-04T03:54:23;4.50;95.90
30889;DHT22;51092;50.874;7.024;2023-03-04T03:55:25;4.40;96.00
30889;DHT22;51092;50.874;7.024;2023-03-04T03:56:27;4.40;96.20
30889;DHT22;51092;50.874;7.024;2023-03-04T03:57:29;4.40;96.20
30889;DHT22;51092;50.874;7.024;2023-03-04T03:58:31;4.40;96.20
30889;DHT22;51092;50.874;7.024;2023-03-04T03:59:33;4.40;96.20
30889;DHT22;51092;50.874;7.024;2023-03-04T04:00:37;4.40;96.30
30889;DHT22;51092;50.874;7.024;2023-03-04T04:01:39;4.50;96.20
30889;DHT22;51092;50.874;7.024;2023-03-04T04:02:41;4.50;96.00
30889;DHT22;51092;50.874;7.024;2023-03-04T04:03:43;4.50;95.90
30889;DHT22;51092;50.874;7.024;2023-03-04T04:04:45;4.50;96.00
30889;DHT22;51092;50.874;7.024;2023-03-04T04:05:47;4.60;95.90
30889;DHT22;51092;50.874;7.024;2023-03-04T04:06:49;4.60;95.80
30889;DHT22;51092;50.874;7.024;2023-03-04T04:07:51;4.60;95.60
30889;DHT22;51092;50.874;7.024;2023-03-04T04:08:53;4.60;95.70
30889;DHT22;51092;50.874;7.024;2023-03-04T04:09:55;4.50;95.90
30889;DHT22;51092;50.874;7.024;2023-03-04T04:10:58;4.60;95.70
30889;DHT22;51092;50.874;7.024;2023-03-04T04:12:00;4.70;95.50
30889;DHT22;51092;50.874;7.024;2023-03-04T04:13:01;4.70;95.50
30889;DHT22;51092;50.874;7.024;2023-03-04T04:14:04;4.70;95.40
30889;DHT22;51092;50.874;7.024;2023-03-04T04:15:08;4.70;95.20
30889;DHT22;51092;50.874;7.024;2023-03-04T04:16:13;4.70;95.30
30889;DHT22;51092;50.874;7.024;2023-03-04T04:17:14;4.70;95.40
30889;DHT22;51092;50.874;7.024;2023-03-04T04:18:17;4.70;95.40
30889;DHT22;51092;50.874;7.024;2023-03-04T04:19:19;4.60;95.50
30889;DHT22;51092;50.874;7.024;2023-03-04T04:20:21;4.50;95.80
30889;DHT22;51092;50.874;7.024;2023-03-04T04:21:23;4.50;95.80
30889;DHT22;51092;50.874;7.024;2023-03-04T04:22:25;4.50;95.90
30889;DHT22;51092;50.874;7.024;2023-03-04T04:23:27;4.50;96.00
30889;DHT22;51092;50.874;7.024;2023-03-04T04:24:29;4.60;95.80
30889;DHT22;51092;50.874;7.024;2023-03-04T04:25:31;4.60;95.60
30889;DHT22;51092;50.874;7.024;2023-03-04T04:26:33;4.60;95.60
30889;DHT22;51092;50.874;7.024;2023-03-04T04:27:35;4.50;95.90
30889;DHT22;51092;50.874;7.024;2023-03-04T04:28:37;4.50;95.90
30889;DHT22;51092;50.874;7.024;2023-03-04T04:29:39;4.50;96.00
30889;DHT22;51092;50.874;7.024;2023-03-04T04:30:42;4.40;96.10
30889;DHT22;51092;50.874;7.024;2023-03-04T04:31:44;4.50;96.00
30889;DHT22;51092;50.874;7.024;2023-03-04T04:32:47;4.50;95.90
30889;DHT22;51092;50.874;7.024;2023-03-04T04:33:48;4.40;96.10
30889;DHT22;51092;50.874;7.024;2023-03-04T04:34:51;4.40;96.30
30889;DHT22;51092;50.874;7.024;2023-03-04T04:35:52;4.40;96.20
30889;DHT22;51092;50.874;7.024;2023-03-04T04:36:55;4.40;96.10
30889;DHT22;51092;50.874;7.024;2023-03-04T04:37:57;4.40;96.10
30889;DHT22;51092;50.874;7.024;2023-03-04T04:38:59;4.50;96.00
30889;DHT22;51092;50.874;7.024;2023-03-04T04:40:01;4.50;96.00
30889;DHT22;51092;50.874;7.024;2023-03-04T04:41:04;4.50;96.10
30889;DHT22;51092;50.874;7.024;2023-03-04T04:42:08;4.50;96.00
30889;DHT22;51092;50.874;7.024;2023-03-04T04:43:10;4.50;96.00
30889;DHT22;51092;50.874;7.024;2023-03-04T04:44:12;4.60;95.80
30889;DHT22;51092;50.874;7.024;2023-03-04T04:45:14;4.50;95.90
30889;DHT22;51092;50.874;7.024;2023-03-04T04:46:17;4.40;96.20
30889;DHT22;51092;50.874;7.024;2023-03-04T04:47:20;4.40;96.40
30889;DHT22;51092;50.874;7.024;2023-03-04T04:48:22;4.40;96.50
30889;DHT22;51092;50.874;7.024;2023-03-04T04:49:24;4.40;96.30
30889;DHT22;51092;50.874;7.024;2023-03-04T04:50:26;4.50;96.20
30889;DHT22;51092;50.874;7.024;2023-03-04T04:51:28;4.50;96.10
30889;DHT22;51092;50.874;7.024;2023-03-04T04:52:30;4.40;96.40
30889;DHT22;51092;50.874;7.024;2023-03-04T04:53:32;4.30;96.80
30889;DHT22;51092;50.874;7.024;2023-03-04T04:54:34;4.30;96.80
30889;DHT22;51092;50.874;7.024;2023-03-04T04:55:36;4.20;97.10
30889;DHT22;51092;50.874;7.024;2023-03-04T04:56:38;4.20;97.20
30889;DHT22;51092;50.874;7.024;2023-03-04T04:57:40;4.30;97.00
30889;DHT22;51092;50.874;7.024;2023-03-04T04:58:45;4.30;96.90
30889;DHT22;51092;50.874;7.024;2023-03-04T04:59:46;4.30;97.00
30889;DHT22;51092;50.874;7.024;2023-03-04T05:00:49;4.30;97.00
30889;DHT22;51092;50.874;7.024;2023-03-04T05:01:50;4.40;96.70
30889;DHT22;51092;50.874;7.024;2023-03-04T05:02:54;4.40;96.50
30889;DHT22;51092;50.874;7.024;2023-03-04T05:03:56;4.50;96.30
30889;DHT22;51092;50.874;7.024;2023-03-04T05:04:58;4.50;96.30
30889;DHT22;51092;50.874;7.024;2023-03-04T05:06:00;4.40;96.60
30889;DHT22;51092;50.874;7.024;2023-03-04T05:07:02;4.20;97.00
30889;DHT22;51092;50.874;7.024;2023-03-04T05:08:04;4.20;97.30
30889;DHT22;51092;50.874;7.024;2023-03-04T05:09:07;4.10;97.50
30889;DHT22;51092;50.874;7.024;2023-03-04T05:10:09;4.10;97.70
30889;DHT22;51092;50.874;7.024;2023-03-04T05:11:12;4.10;97.90
30889;DHT22;51092;50.874;7.024;2023-03-04T05:12:13;4.20;97.50
30889;DHT22;51092;50.874;7.024;2023-03-04T05:13:16;4.20;97.30
30889;DHT22;51092;50.874;7.024;2023-03-04T05:14:19;4.20;97.40
30889;DHT22;51092;50.874;7.024;2023-03-04T05:15:22;4.30;97.20
30889;DHT22;51092;50.874;7.024;2023-03-04T05:16:24;4.40;96.80
30889;DHT22;51092;50.874;7.024;2023-03-04T05:17:26;4.40;96.80
30889;DHT22;51092;50.874;7.024;2023-03-04T05:18:29;4.40;97.00
30889;DHT22;51092;50.874;7.024;2023-03-04T05:19:31;4.50;96.40
30889;DHT22;51092;50.874;7.024;2023-03-04T05:20:33;4.50;96.40
30889;DHT22;51092;50.874;7.024;2023-03-04T05:21:35;4.50;96.40
30889;DHT22;51092;50.874;7.024;2023-03-04T05:22:37;4.50;96.50
30889;DHT22;51092;50.874;7.024;2023-03-04T05:23:41;4.50;96.30
30889;DHT22;51092;50.874;7.024;2023-03-04T05:24:42;4.50;96.50
30889;DHT22;51092;50.874;7.024;2023-03-04T05:25:45;4.50;96.50
30889;DHT22;51092;50.874;7.024;2023-03-04T05:26:47;4.30;96.80
30889;DHT22;51092;50.874;7.024;2023-03-04T05:27:49;4.30;97.00
30889;DHT22;51092;50.874;7.024;2023-03-04T05:28:51;4.30;97.20
30889;DHT22;51092;50.874;7.024;2023-03-04T05:29:53;4.20;97.40
30889;DHT22;51092;50.874;7.024;2023-03-04T05:30:55;4.20;97.40
30889;DHT22;51092;50.874;7.024;2023-03-04T05:31:58;4.20;97.40
30889;DHT22;51092;50.874;7.024;2023-03-04T05:32:59;4.20;97.50
30889;DHT22;51092;50.874;7.024;2023-03-04T05:34:03;4.10;97.80
30889;DHT22;51092;50.874;7.024;2023-03-04T05:35:05;4.20;97.70
30889;DHT22;51092;50.874;7.024;2023-03-04T05:36:09;4.20;97.60
30889;DHT22;51092;50.874;7.024;2023-03-04T05:37:10;4.20;97.60
30889;DHT22;51092;50.874;7.024;2023-03-04T05:38:15;4.20;97.60
30889;DHT22;51092;50.874;7.024;2023-03-04T05:39:17;4.30;97.60
30889;DHT22;51092;50.874;7.024;2023-03-04T05:40:19;4.40;97.30
30889;DHT22;51092;50.874;7.024;2023-03-04T05:41:21;4.50;97.20
30889;DHT22;51092;50.874;7.024;2023-03-04T05:42:23;4.60;96.80
30889;DHT22;51092;50.874;7.024;2023-03-04T05:43:26;4.70;96.50
30889;DHT22;51092;50.874;7.024;2023-03-04T05:44:29;4.80;96.20
30889;DHT22;51092;50.874;7.024;2023-03-04T05:45:30;4.90;95.90
30889;DHT22;51092;50.874;7.024;2023-03-04T05:46:32;4.90;95.70
30889;DHT22;51092;50.874;7.024;2023-03-04T05:47:34;5.00;95.40
30889;DHT22;51092;50.874;7.024;2023-03-04T05:48:38;5.00;95.30
30889;DHT22;51092;50.874;7.024;2023-03-04T05:49:41;5.10;95.10
30889;DHT22;51092;50.874;7.024;2023-03-04T05:50:44;5.10;95.00
30889;DHT22;51092;50.874;7.024;2023-03-04T05:51:46;5.10;94.90
30889;DHT22;51092;50.874;7.024;2023-03-04T05:52:48;5.20;94.70
30889;DHT22;51092;50.874;7.024;2023-03-04T05:53:50;5.20;94.60
30889;DHT22;51092;50.874;7.024;2023-03-04T05:54:52;5.20;94.60
30889;DHT22;51092;50.874;7.024;2023-03-04T05:55:54;5.20;94.60
30889;DHT22;51092;50.874;7.024;2023-03-04T05:56:59;5.20;94.60
30889;DHT22;51092;50.874;7.024;2023-03-04T05:58:00;5.20;94.40
30889;DHT22;51092;50.874;7.024;2023-03-04T05:59:03;5.20;94.40
30889;DHT22;51092;50.874;7.024;2023-03-04T06:00:06;5.30;94.20
30889;DHT22;51092;50.874;7.024;2023-03-04T06:01:09;5.30;94.20
30889;DHT22;51092;50.874;7.024;2023-03-04T06:02:11;5.20;94.40
30889;DHT22;51092;50.874;7.024;2023-03-04T06:03:15;5.00;94.80
30889;DHT22;51092;50.874;7.024;2023-03-04T06:04:17;5.00;95.10
30889;DHT22;51092;50.874;7.024;2023-03-04T06:05:21;5.00;95.00
30889;DHT22;51092;50.874;7.024;2023-03-04T06:06:23;5.00;95.00
30889;DHT22;51092;50.874;7.024;2023-03-04T06:07:25;5.00;94.80
30889;DHT22;51092;50.874;7.024;2023-03-04T06:08:27;5.00;95.00
30889;DHT22;51092;50.874;7.024;2023-03-04T06:09:29;5.00;95.00
30889;DHT22;51092;50.874;7.024;2023-03-04T06:10:31;5.10;94.80
30889;DHT22;51092;50.874;7.024;2023-03-04T06:11:33;5.00;94.80
30889;DHT22;51092;50.874;7.024;2023-03-04T06:12:35;5.00;94.80
30889;DHT22;51092;50.874;7.024;2023-03-04T06:13:37;5.00;95.00
30889;DHT22;51092;50.874;7.024;2023-03-04T06:14:39;5.00;94.90
30889;DHT22;51092;50.874;7.024;2023-03-04T06:15:41;5.00;94.90
30889;DHT22;51092;50.874;7.024;2023-03-04T06:16:43;5.10;94.60
30889;DHT22;51092;50.874;7.024;2023-03-04T06:17:45;5.10;94.50
30889;DHT22;51092;50.874;7.024;2023-03-04T06:18:47;5.10;94.60
30889;DHT22;51092;50.874;7.024;2023-03-04T06:19:49;5.00;94.70
30889;DHT22;51092;50.874;7.024;2023-03-04T06:20:55;5.10;94.60
30889;DHT22;51092;50.874;7.024;2023-03-04T06:21:57;5.10;94.70
30889;DHT22;51092;50.874;7.024;2023-03-04T06:22:59;5.10;94.70
30889;DHT22;51092;50.874;7.024;2023-03-04T06:24:01;5.10;94.70
30889;DHT22;51092;50.874;7.024;2023-03-04T06:25:03;5.20;94.50
30889;DHT22;51092;50.874;7.024;2023-03-04T06:26:05;5.20;94.40
30889;DHT22;51092;50.874;7.024;2023-03-04T06:27:09;5.20;94.40
30889;DHT22;51092;50.874;7.024;2023-03-04T06:28:12;5.10;94.50
30889;DHT22;51092;50.874;7.024;2023-03-04T06:29:13;5.00;94.80
30889;DHT22;51092;50.874;7.024;2023-03-04T06:30:16;5.00;94.80
30889;DHT22;51092;50.874;7.024;2023-03-04T06:31:18;5.00;94.80
30889;DHT22;51092;50.874;7.024;2023-03-04T06:32:20;4.90;95.10
30889;DHT22;51092;50.874;7.024;2023-03-04T06:33:22;4.90;95.20
30889;DHT22;51092;50.874;7.024;2023-03-04T06:34:25;4.90;95.10
30889;DHT22;51092;50.874;7.024;2023-03-04T06:35:28;4.90;95.30
30889;DHT22;51092;50.874;7.024;2023-03-04T06:36:32;4.80;95.40
30889;DHT22;51092;50.874;7.024;2023-03-04T06:37:33;4.80;95.40
30889;DHT22;51092;50.874;7.024;2023-03-04T06:38:36;4.80;95.40
30889;DHT22;51092;50.874;7.024;2023-03-04T06:39:37;4.80;95.50
30889;DHT22;51092;50.874;7.024;2023-03-04T06:40:39;4.80;95.60